createdAt,value
2022-12-08T00:01:34.310Z,40.60
2022-12-08T00:04:04.571Z,41.10
2022-12-08T00:06:59.715Z,45.20
2022-12-08T00:09:42.333Z,40.70
2022-12-08T00:12:16.541Z,42.70
2022-12-08T00:14:47.284Z,41.60
2022-12-08T00:19:44.475Z,33.30
2022-12-08T00:22:13.034Z,37.70
2022-12-08T00:24:44.102Z,39.20
2022-12-08T00:27:14.153Z,40.90
2022-12-08T00:29:44.460Z,40.50
2022-12-08T00:32:12.856Z,37.50
2022-12-08T00:34:40.898Z,40.40
2022-12-08T00:37:08.849Z,39.10
2022-12-08T00:39:36.787Z,37.30
2022-12-08T00:42:13.911Z,31.90
2022-12-08T00:44:43.826Z,32.60
2022-12-08T00:47:12.897Z,33.00
2022-12-08T00:49:41.691Z,34.80
2022-12-08T00:52:09.591Z,35.60
2022-12-08T00:54:37.537Z,35.60
2022-12-08T00:57:06.186Z,37.90
2022-12-08T00:59:34.228Z,37.60
2022-12-08T01:02:02.137Z,37.00
2022-12-08T01:04:30.415Z,35.90
2022-12-08T01:06:58.288Z,37.00
2022-12-08T01:09:26.357Z,34.00
2022-12-08T01:11:54.661Z,34.90
2022-12-08T01:14:22.565Z,29.20
2022-12-08T01:16:50.968Z,29.70
2022-12-08T01:19:19.342Z,34.90
2022-12-08T01:21:47.346Z,32.60
2022-12-08T01:24:21.708Z,33.10
2022-12-08T01:26:50.968Z,34.40
2022-12-08T01:29:18.879Z,32.80
2022-12-08T01:31:47.038Z,31.10
2022-12-08T01:34:15.077Z,31.40
2022-12-08T01:36:44.465Z,30.60
2022-12-08T01:39:17.957Z,29.40
2022-12-08T01:41:47.768Z,27.30
2022-12-08T01:44:15.728Z,28.60
2022-12-08T01:46:48.830Z,28.00
2022-12-08T01:49:43.105Z,25.60
2022-12-08T01:52:13.654Z,25.30
2022-12-08T01:54:53.092Z,27.60
2022-12-08T01:57:24.025Z,30.70
2022-12-08T01:59:58.855Z,30.30
2022-12-08T02:02:33.605Z,29.80
2022-12-08T02:05:03.506Z,30.30
2022-12-08T02:07:31.781Z,31.40
2022-12-08T02:10:01.000Z,30.70
2022-12-08T02:12:29.755Z,29.50
2022-12-08T02:15:04.852Z,28.90
2022-12-08T02:17:49.865Z,28.50
2022-12-08T02:20:27.614Z,28.20
2022-12-08T02:23:01.514Z,28.00
2022-12-08T02:25:47.892Z,27.50
2022-12-08T02:28:35.981Z,28.60
2022-12-08T02:31:51.364Z,27.50
2022-12-08T02:34:30.550Z,27.80
2022-12-08T02:37:20.580Z,30.40
2022-12-08T02:40:09.598Z,39.70
2022-12-08T02:42:44.599Z,39.80
2022-12-08T02:45:23.070Z,40.80
2022-12-08T02:47:52.223Z,38.90
2022-12-08T02:50:20.487Z,35.10
2022-12-08T02:52:49.101Z,30.30
2022-12-08T02:55:20.090Z,30.40
2022-12-08T02:58:26.095Z,29.70
2022-12-08T03:01:17.991Z,28.40
2022-12-08T03:04:13.900Z,26.60
2022-12-08T03:07:00.280Z,28.10
2022-12-08T03:09:44.781Z,27.60
2022-12-08T03:12:26.425Z,28.70
2022-12-08T03:14:58.768Z,29.90
2022-12-08T03:17:30.011Z,31.10
2022-12-08T03:20:04.191Z,35.30
2022-12-08T03:22:33.129Z,36.70
2022-12-08T03:25:01.505Z,39.60
2022-12-08T03:27:31.533Z,38.80
2022-12-08T03:30:01.130Z,37.20
2022-12-08T03:32:48.159Z,35.30
2022-12-08T03:35:24.291Z,33.90
2022-12-08T03:37:52.804Z,32.60
2022-12-08T03:40:21.016Z,32.80
2022-12-08T03:42:48.903Z,31.50
2022-12-08T03:45:16.932Z,36.10
2022-12-08T03:47:45.180Z,37.30
2022-12-08T03:50:13.255Z,37.70
2022-12-08T03:52:41.211Z,34.80
2022-12-08T03:55:09.496Z,36.20
2022-12-08T03:57:37.910Z,37.20
2022-12-08T04:00:07.624Z,35.80
2022-12-08T04:02:35.762Z,29.60
2022-12-08T04:05:03.907Z,27.00
2022-12-08T04:07:31.891Z,25.40
2022-12-08T04:10:00.179Z,30.30
2022-12-08T04:12:28.059Z,30.10
2022-12-08T04:14:55.972Z,31.00
2022-12-08T04:17:23.903Z,28.90
2022-12-08T04:19:52.573Z,27.70
2022-12-08T04:22:20.509Z,24.70
2022-12-08T04:24:48.890Z,20.20
2022-12-08T04:27:16.768Z,17.10
2022-12-08T04:29:44.611Z,17.30
2022-12-08T04:32:12.874Z,17.20
2022-12-08T04:34:40.887Z,19.00
2022-12-08T04:37:08.880Z,19.90
2022-12-08T04:39:37.082Z,21.50
2022-12-08T04:42:05.181Z,30.70
2022-12-08T04:44:33.053Z,25.70
2022-12-08T04:47:01.008Z,27.40
2022-12-08T04:49:29.145Z,25.10
2022-12-08T04:51:57.119Z,18.40
2022-12-08T04:54:25.224Z,17.30
2022-12-08T04:56:53.207Z,16.30
2022-12-08T04:59:21.219Z,19.60
2022-12-08T05:01:49.375Z,20.50
2022-12-08T05:04:17.546Z,21.00
2022-12-08T05:06:45.961Z,22.20
2022-12-08T05:09:13.988Z,21.10
2022-12-08T05:11:46.962Z,19.50
2022-12-08T05:14:18.999Z,22.00
2022-12-08T05:16:47.968Z,23.10
2022-12-08T05:19:16.696Z,23.70
2022-12-08T05:21:45.362Z,22.70
2022-12-08T05:24:13.299Z,20.50
2022-12-08T05:26:41.399Z,18.20
2022-12-08T05:29:09.849Z,19.70
2022-12-08T05:31:37.945Z,16.80
2022-12-08T05:34:05.926Z,16.10
2022-12-08T05:36:33.976Z,18.30
2022-12-08T05:39:01.920Z,18.60
2022-12-08T05:41:29.845Z,20.80
2022-12-08T05:43:57.767Z,18.60
2022-12-08T05:46:25.946Z,20.10
2022-12-08T05:48:54.067Z,19.00
2022-12-08T05:51:24.273Z,19.80
2022-12-08T05:53:53.028Z,20.00
2022-12-08T05:56:22.231Z,22.20
2022-12-08T05:58:50.392Z,19.20
2022-12-08T06:01:22.683Z,18.90
2022-12-08T06:03:51.401Z,18.60
2022-12-08T06:06:20.167Z,18.60
2022-12-08T06:08:48.147Z,18.40
2022-12-08T06:11:25.552Z,17.40
2022-12-08T06:13:54.694Z,18.40
2022-12-08T06:16:23.886Z,19.20
2022-12-08T06:18:52.387Z,18.60
2022-12-08T06:21:21.050Z,19.60
2022-12-08T06:23:51.286Z,18.10
2022-12-08T06:26:20.610Z,16.70
2022-12-08T06:28:49.485Z,15.30
2022-12-08T06:31:27.966Z,15.30
2022-12-08T06:33:56.035Z,16.00
2022-12-08T06:36:26.234Z,17.20
2022-12-08T06:38:54.275Z,16.80
2022-12-08T06:41:22.359Z,16.50
2022-12-08T06:43:50.645Z,16.00
2022-12-08T06:46:20.358Z,15.40
2022-12-08T06:48:50.477Z,13.50
2022-12-08T06:51:22.060Z,14.20
2022-12-08T06:53:50.041Z,14.40
2022-12-08T06:56:20.114Z,13.20
2022-12-08T06:58:52.505Z,12.20
2022-12-08T07:01:21.599Z,13.30
2022-12-08T07:03:49.750Z,13.80
2022-12-08T07:06:23.899Z,13.50
2022-12-08T07:08:52.195Z,13.20
2022-12-08T07:11:22.190Z,13.40
2022-12-08T07:13:51.597Z,15.20
2022-12-08T07:16:19.799Z,14.80
2022-12-08T07:18:47.836Z,14.60
2022-12-08T07:21:17.604Z,12.90
2022-12-08T07:23:46.867Z,14.70
2022-12-08T07:26:15.408Z,14.40
2022-12-08T07:28:43.773Z,15.60
2022-12-08T07:31:21.165Z,15.30
2022-12-08T07:33:50.358Z,15.60
2022-12-08T07:36:18.772Z,16.20
2022-12-08T07:38:47.270Z,17.00
2022-12-08T07:41:23.244Z,14.80
2022-12-08T07:43:53.574Z,16.00
2022-12-08T07:46:24.171Z,15.80
2022-12-08T07:51:21.208Z,16.50
2022-12-08T07:53:54.249Z,17.30
2022-12-08T07:56:23.733Z,18.00
2022-12-08T07:58:51.997Z,18.70
2022-12-08T08:01:26.548Z,19.70
2022-12-08T08:03:57.190Z,20.10
2022-12-08T08:06:25.246Z,17.60
2022-12-08T08:08:53.431Z,18.30
2022-12-08T08:11:21.918Z,17.80
2022-12-08T08:13:51.041Z,16.20
2022-12-08T08:16:19.873Z,17.50
2022-12-08T08:18:50.035Z,16.80
2022-12-08T08:24:08.916Z,16.80
2022-12-08T08:26:37.419Z,16.30
2022-12-08T08:29:05.529Z,17.20
2022-12-08T08:31:33.552Z,16.00
2022-12-08T08:34:06.141Z,16.80
2022-12-08T08:36:34.628Z,18.30
2022-12-08T08:39:03.402Z,18.60
2022-12-08T08:41:31.462Z,17.10
2022-12-08T08:43:59.500Z,18.10
2022-12-08T08:46:27.763Z,17.70
2022-12-08T08:48:56.390Z,17.10
2022-12-08T08:51:24.601Z,16.70
2022-12-08T08:53:52.456Z,16.70
2022-12-08T08:56:20.422Z,17.00
2022-12-08T08:58:49.655Z,15.30
2022-12-08T09:01:21.083Z,17.40
2022-12-08T09:03:49.731Z,16.20
2022-12-08T09:06:18.307Z,16.60
2022-12-08T09:08:46.936Z,15.00
2022-12-08T09:11:15.442Z,16.60
2022-12-08T09:13:43.452Z,16.80
2022-12-08T09:16:11.972Z,15.60
2022-12-08T09:18:40.056Z,14.50
2022-12-08T09:21:13.272Z,14.30
2022-12-08T09:23:41.216Z,13.80
2022-12-08T09:26:10.170Z,14.20
2022-12-08T09:28:38.425Z,15.40
2022-12-08T09:31:06.449Z,14.80
2022-12-08T09:33:34.579Z,15.50
2022-12-08T09:36:04.401Z,15.10
2022-12-08T09:38:32.840Z,14.70
2022-12-08T09:41:04.408Z,15.10
2022-12-08T09:43:51.864Z,15.10
2022-12-08T09:46:20.941Z,16.80
2022-12-08T09:48:56.977Z,18.00
2022-12-08T09:51:27.166Z,16.90
2022-12-08T09:54:03.289Z,15.70
2022-12-08T09:56:35.780Z,14.10
2022-12-08T09:59:30.741Z,16.50
2022-12-08T10:02:00.496Z,15.70
2022-12-08T10:04:35.183Z,16.00
2022-12-08T10:07:25.117Z,17.60
2022-12-08T10:10:06.099Z,15.60
2022-12-08T10:12:38.154Z,16.40
2022-12-08T10:15:48.771Z,14.70
2022-12-08T10:18:25.025Z,15.00
2022-12-08T10:20:54.545Z,14.10
2022-12-08T10:23:31.856Z,14.00
2022-12-08T10:26:07.639Z,14.60
2022-12-08T10:28:40.046Z,15.90
2022-12-08T10:31:17.992Z,14.30
2022-12-08T10:33:48.322Z,14.80
2022-12-08T10:36:16.213Z,15.80
2022-12-08T10:38:44.295Z,15.40
2022-12-08T10:41:12.476Z,16.50
2022-12-08T10:43:48.105Z,16.50
2022-12-08T10:46:20.698Z,14.60
2022-12-08T10:48:52.733Z,16.20
2022-12-08T10:51:42.092Z,17.90
2022-12-08T10:54:33.372Z,15.90
2022-12-08T10:57:01.644Z,14.50
2022-12-08T10:59:32.868Z,16.80
2022-12-08T11:02:02.548Z,15.20
2022-12-08T11:04:36.661Z,16.20
2022-12-08T11:07:06.539Z,17.00
2022-12-08T11:09:48.686Z,16.00
2022-12-08T11:12:18.618Z,16.40
2022-12-08T11:14:56.238Z,18.60
2022-12-08T11:17:27.344Z,15.60
2022-12-08T11:20:06.498Z,16.40
2022-12-08T11:22:38.077Z,16.10
2022-12-08T11:27:43.582Z,15.30
2022-12-08T11:30:28.020Z,14.20
2022-12-08T11:33:01.473Z,15.10
2022-12-08T11:35:37.526Z,15.80
2022-12-08T11:38:22.280Z,12.00
2022-12-08T11:40:54.424Z,13.90
2022-12-08T11:43:25.362Z,11.50
2022-12-08T11:48:41.191Z,11.50
2022-12-08T11:51:36.716Z,11.20
2022-12-08T11:54:06.342Z,14.60
2022-12-08T11:56:39.000Z,12.40
2022-12-08T11:59:13.479Z,16.30
2022-12-08T12:01:42.854Z,16.70
2022-12-08T12:04:22.223Z,13.00
2022-12-08T12:06:56.157Z,12.70
2022-12-08T12:10:03.788Z,10.40
2022-12-08T12:12:37.871Z,10.00
2022-12-08T12:15:27.897Z,11.00
2022-12-08T12:17:59.183Z,11.20
2022-12-08T12:20:53.176Z,9.90
2022-12-08T12:23:39.117Z,11.60
2022-12-08T12:26:10.235Z,8.30
2022-12-08T12:29:08.604Z,9.40
2022-12-08T12:31:42.025Z,9.80
2022-12-08T12:34:27.238Z,9.40
2022-12-08T12:37:15.612Z,8.90
2022-12-08T12:39:52.914Z,10.00
2022-12-08T12:42:39.575Z,8.60
2022-12-08T12:45:16.174Z,8.40
2022-12-08T12:47:55.895Z,8.40
2022-12-08T12:50:33.508Z,9.70
2022-12-08T12:53:10.680Z,9.30
2022-12-08T12:56:02.472Z,8.40
2022-12-08T12:58:30.434Z,9.70
2022-12-08T13:01:13.966Z,10.50
2022-12-08T13:04:07.312Z,12.30
2022-12-08T13:06:40.838Z,12.40
2022-12-08T13:09:22.290Z,10.60
2022-12-08T13:11:54.153Z,12.70
2022-12-08T13:14:29.823Z,12.50
2022-12-08T13:17:00.152Z,12.70
2022-12-08T13:19:32.147Z,12.20
2022-12-08T13:22:00.748Z,12.20
2022-12-08T13:24:32.579Z,13.20
2022-12-08T13:27:03.794Z,17.10
2022-12-08T13:29:33.429Z,14.40
2022-12-08T13:32:03.087Z,13.00
2022-12-08T13:34:42.163Z,15.40
2022-12-08T13:37:16.147Z,12.80
2022-12-08T13:39:51.653Z,11.60
2022-12-08T13:42:32.632Z,12.10
2022-12-08T13:48:44.631Z,11.00
2022-12-08T13:53:15.845Z,10.40
2022-12-08T13:57:36.871Z,12.00
2022-12-08T14:00:15.968Z,14.90
2022-12-08T14:02:48.419Z,16.50
2022-12-08T14:05:21.872Z,17.30
2022-12-08T14:07:55.425Z,16.50
2022-12-08T14:10:27.595Z,18.50
2022-12-08T14:13:01.848Z,15.60
2022-12-08T14:15:37.609Z,16.20
2022-12-08T14:18:21.640Z,15.80
2022-12-08T14:21:20.303Z,20.60
2022-12-08T14:23:49.249Z,21.70
2022-12-08T14:26:17.960Z,19.90
2022-12-08T14:28:46.012Z,19.90
2022-12-08T14:31:15.022Z,16.30
2022-12-08T14:33:43.324Z,16.60
2022-12-08T14:36:15.822Z,17.50
2022-12-08T14:38:45.241Z,19.00
2022-12-08T14:41:13.226Z,16.10
2022-12-08T14:43:43.005Z,14.70
2022-12-08T14:46:22.335Z,14.10
2022-12-08T14:48:50.562Z,15.50
2022-12-08T14:51:26.520Z,21.10
2022-12-08T14:54:09.672Z,10.70
2022-12-08T14:56:41.886Z,15.90
2022-12-08T14:59:17.732Z,15.00
2022-12-08T15:01:49.452Z,14.90
2022-12-08T15:04:23.195Z,12.40
2022-12-08T15:07:22.811Z,13.60
2022-12-08T15:10:09.640Z,13.50
2022-12-08T15:12:37.807Z,15.20
2022-12-08T15:15:08.558Z,14.00
2022-12-08T15:20:40.918Z,14.90
2022-12-08T15:23:42.629Z,13.40
2022-12-08T15:26:21.088Z,15.10
2022-12-08T15:28:49.245Z,16.30
2022-12-08T15:31:18.034Z,15.00
2022-12-08T15:33:45.936Z,15.40
2022-12-08T15:36:14.162Z,15.10
2022-12-08T15:38:43.260Z,16.10
2022-12-08T15:41:14.837Z,17.80
2022-12-08T15:43:43.622Z,16.00
2022-12-08T15:46:12.002Z,17.70
2022-12-08T15:48:40.219Z,17.40
2022-12-08T15:51:08.287Z,18.80
2022-12-08T15:53:36.134Z,18.70
2022-12-08T15:58:56.855Z,21.70
2022-12-08T16:01:26.619Z,28.40
2022-12-08T16:04:47.749Z,23.60
2022-12-08T16:09:38.947Z,19.00
2022-12-08T16:13:26.656Z,21.90
2022-12-08T16:15:51.235Z,22.50
2022-12-08T16:18:23.928Z,22.10
2022-12-08T16:21:16.870Z,21.50
2022-12-08T16:23:43.719Z,17.30
2022-12-08T16:29:07.499Z,20.60
2022-12-08T16:31:35.611Z,16.50
2022-12-08T16:34:03.704Z,17.20
2022-12-08T16:36:31.749Z,17.30
2022-12-08T16:38:59.654Z,16.10
2022-12-08T16:41:45.827Z,16.50
2022-12-08T16:44:13.916Z,16.50
2022-12-08T16:46:42.120Z,16.00
2022-12-08T16:49:10.075Z,15.60
2022-12-08T16:51:38.605Z,14.40
2022-12-08T16:54:06.492Z,13.80
2022-12-08T16:56:34.384Z,14.20
2022-12-08T16:59:02.732Z,16.20
2022-12-08T17:01:31.573Z,15.50
2022-12-08T17:04:31.007Z,14.70
2022-12-08T17:06:47.997Z,14.80
2022-12-08T17:09:15.887Z,15.90
2022-12-08T17:11:44.161Z,17.10
2022-12-08T17:14:13.540Z,17.90
2022-12-08T17:16:42.353Z,19.40
2022-12-08T17:19:13.408Z,20.20
2022-12-08T17:21:43.484Z,18.40
2022-12-08T17:24:14.619Z,18.70
2022-12-08T17:26:43.875Z,17.10
2022-12-08T17:29:11.969Z,16.50
2022-12-08T17:31:39.900Z,18.40
2022-12-08T17:34:11.100Z,19.00
2022-12-08T17:36:39.360Z,19.60
2022-12-08T17:39:12.147Z,19.80
2022-12-08T17:41:42.942Z,21.20
2022-12-08T17:44:13.509Z,23.00
2022-12-08T17:46:45.244Z,23.20
2022-12-08T17:49:20.452Z,23.40
2022-12-08T17:51:51.068Z,23.50
2022-12-08T17:54:20.079Z,22.00
2022-12-08T17:56:48.368Z,24.00
2022-12-08T17:59:16.618Z,24.60
2022-12-08T18:01:44.832Z,24.70
2022-12-08T18:04:13.207Z,25.20
2022-12-08T18:06:41.530Z,25.60
2022-12-08T18:09:09.738Z,25.10
2022-12-08T18:11:37.877Z,24.70
2022-12-08T18:14:11.063Z,23.70
2022-12-08T18:16:41.583Z,24.00
2022-12-08T18:21:38.251Z,21.50
2022-12-08T18:24:07.225Z,22.50
2022-12-08T18:26:35.483Z,23.30
2022-12-08T18:29:03.785Z,23.90
2022-12-08T18:31:31.761Z,23.30
2022-12-08T18:33:59.791Z,25.10
2022-12-08T18:36:27.796Z,25.50
2022-12-08T18:38:56.019Z,25.30
2022-12-08T18:41:26.088Z,26.20
2022-12-08T18:43:55.742Z,28.30
2022-12-08T18:46:25.314Z,27.20
2022-12-08T18:48:53.375Z,27.00
2022-12-08T18:51:24.182Z,26.60
2022-12-08T18:53:52.840Z,23.70
2022-12-08T18:56:26.806Z,21.10
2022-12-08T18:59:01.307Z,21.20
2022-12-08T19:01:33.016Z,19.90
2022-12-08T19:06:52.242Z,21.90
2022-12-08T19:09:20.653Z,23.10
2022-12-08T19:11:49.121Z,27.20
2022-12-08T19:14:19.223Z,26.90
2022-12-08T19:16:51.336Z,28.90
2022-12-08T19:19:19.282Z,27.80
2022-12-08T19:21:47.184Z,27.10
2022-12-08T19:24:15.705Z,31.90
2022-12-08T19:26:43.721Z,38.20
2022-12-08T19:29:12.280Z,35.00
2022-12-08T19:31:41.681Z,30.30
2022-12-08T19:34:11.886Z,30.00
2022-12-08T19:36:42.950Z,28.70
2022-12-08T19:39:38.823Z,25.00
2022-12-08T19:42:36.072Z,23.90
2022-12-08T19:45:12.037Z,21.70
2022-12-08T19:47:41.306Z,23.20
2022-12-08T19:50:31.069Z,28.30
2022-12-08T19:52:59.623Z,26.70
2022-12-08T19:55:28.183Z,24.90
2022-12-08T19:57:57.109Z,25.30
2022-12-08T20:00:25.812Z,30.80
2022-12-08T20:02:54.073Z,35.10
2022-12-08T20:05:22.832Z,32.90
2022-12-08T20:07:50.976Z,32.20
2022-12-08T20:10:23.265Z,29.20
2022-12-08T20:12:51.812Z,27.20
2022-12-08T20:15:19.927Z,25.80
2022-12-08T20:17:47.899Z,23.10
2022-12-08T20:20:16.171Z,22.60
2022-12-08T20:22:45.261Z,24.00
2022-12-08T20:25:13.520Z,24.30
2022-12-08T20:27:41.753Z,23.80
2022-12-08T20:30:16.530Z,25.40
2022-12-08T20:32:45.896Z,26.00
2022-12-08T20:35:15.512Z,25.20
2022-12-08T20:37:43.644Z,25.10
2022-12-08T20:40:12.172Z,25.50
2022-12-08T20:42:40.074Z,29.10
2022-12-08T20:45:09.913Z,26.20
2022-12-08T20:47:38.282Z,25.70
2022-12-08T20:50:07.472Z,23.20
2022-12-08T20:52:38.126Z,22.70
2022-12-08T20:55:07.240Z,23.10
2022-12-08T20:57:35.779Z,23.40
2022-12-08T21:00:05.285Z,23.80
2022-12-08T21:02:33.825Z,22.50
2022-12-08T21:05:02.391Z,23.50
2022-12-08T21:07:30.618Z,23.90
2022-12-08T21:09:59.116Z,23.80
2022-12-08T21:12:27.209Z,23.80
2022-12-08T21:14:55.193Z,22.70
2022-12-08T21:17:23.758Z,22.80
2022-12-08T21:19:51.732Z,22.50
2022-12-08T21:22:21.096Z,22.60
2022-12-08T21:24:49.337Z,24.00
2022-12-08T21:27:17.343Z,23.60
2022-12-08T21:29:45.543Z,21.30
2022-12-08T21:32:14.458Z,21.90
2022-12-08T21:34:44.284Z,22.60
2022-12-08T21:37:12.415Z,22.10
2022-12-08T21:39:40.367Z,23.60
2022-12-08T21:42:33.926Z,23.10
2022-12-08T21:45:02.473Z,22.70
2022-12-08T21:47:30.730Z,22.50
2022-12-08T21:49:58.798Z,22.50
2022-12-08T21:52:27.260Z,22.70
2022-12-08T21:54:55.535Z,23.50
2022-12-08T21:57:24.554Z,24.90
2022-12-08T21:59:52.760Z,24.50
2022-12-08T22:02:22.676Z,25.10
2022-12-08T22:04:52.979Z,26.60
2022-12-08T22:07:22.058Z,24.80
2022-12-08T22:09:49.968Z,26.20
2022-12-08T22:12:18.221Z,26.50
2022-12-08T22:14:46.303Z,27.70
2022-12-08T22:17:14.390Z,26.60
2022-12-08T22:19:43.640Z,27.00
2022-12-08T22:22:11.727Z,26.80
2022-12-08T22:24:39.799Z,27.60
2022-12-08T22:27:08.183Z,28.30
2022-12-08T22:29:36.127Z,29.40
2022-12-08T22:32:04.234Z,28.00
2022-12-08T22:34:32.514Z,28.80
2022-12-08T22:37:00.826Z,28.90
2022-12-08T22:39:28.789Z,28.90
2022-12-08T22:41:56.637Z,29.40
2022-12-08T22:44:24.597Z,29.90
2022-12-08T22:46:52.583Z,30.10
2022-12-08T22:49:20.497Z,28.80
2022-12-08T22:51:48.440Z,29.50
2022-12-08T22:54:16.651Z,24.20
2022-12-08T22:56:44.982Z,8.70
2022-12-08T22:59:12.887Z,5.00
2022-12-08T23:01:41.202Z,4.90
2022-12-08T23:04:17.241Z,4.40
2022-12-08T23:06:46.126Z,4.60
2022-12-08T23:09:14.538Z,4.70
2022-12-08T23:11:44.213Z,5.70
2022-12-08T23:14:12.505Z,6.20
2022-12-08T23:16:40.589Z,6.90
2022-12-08T23:19:08.647Z,7.00
2022-12-08T23:21:36.962Z,7.20
2022-12-08T23:24:05.291Z,7.90
2022-12-08T23:26:35.512Z,7.20
2022-12-08T23:29:04.563Z,10.00
2022-12-08T23:31:32.880Z,10.00
2022-12-08T23:34:02.575Z,8.70
2022-12-08T23:36:31.652Z,10.50
2022-12-08T23:38:59.750Z,9.60
2022-12-08T23:41:28.098Z,10.70
2022-12-08T23:43:56.429Z,11.90
2022-12-08T23:46:24.914Z,12.30
2022-12-08T23:48:52.861Z,10.90
2022-12-08T23:51:21.426Z,12.00
2022-12-08T23:53:49.352Z,11.60
2022-12-08T23:56:18.497Z,11.40
2022-12-08T23:58:46.816Z,10.90
